sensor_id;sensor_type;location;lat;lon;timestamp;pressure;altitude;pressure_sealevel;temperature;humidity
72975;BME280;61166;54.228;37.632;2023-03-23T00:09:14;99275.66;;;5.54;nan
72975;BME280;61166;54.228;37.632;2023-03-23T00:16:33;99263.75;;;5.37;nan
72975;BME280;61166;54.228;37.632;2023-03-23T00:19:04;99273.72;;;5.33;nan
72975;BME280;61166;54.228;37.632;2023-03-23T00:40:57;99265.06;;;5.32;nan
72975;BME280;61166;54.228;37.632;2023-03-23T00:45:48;99251.69;;;5.36;nan
72975;BME280;61166;54.228;37.632;2023-03-23T00:48:14;99247.91;;;5.38;nan
72975;BME280;61166;54.228;37.632;2023-03-23T00:50:40;99252.22;;;5.31;nan
72975;BME280;61166;54.228;37.632;2023-03-23T00:53:06;99250.88;;;5.35;nan
72975;BME280;61166;54.228;37.632;2023-03-23T00:55:32;99249.25;;;5.34;nan
72975;BME280;61166;54.228;37.632;2023-03-23T01:00:23;99240.16;;;5.30;nan
72975;BME280;61166;54.228;37.632;2023-03-23T01:02:49;99243.56;;;5.30;nan
72975;BME280;61166;54.228;37.632;2023-03-23T01:05:14;99238.19;;;5.32;nan
72975;BME280;61166;54.228;37.632;2023-03-23T01:07:40;99238.19;;;5.32;nan
72975;BME280;61166;54.228;37.632;2023-03-23T01:12:31;99230.00;;;5.35;nan
72975;BME280;61166;54.228;37.632;2023-03-23T01:14:57;99226.78;;;5.33;nan
72975;BME280;61166;54.228;37.632;2023-03-23T01:17:22;99222.88;;;5.29;nan
72975;BME280;61166;54.228;37.632;2023-03-23T01:24:38;99224.56;;;5.22;nan
72975;BME280;61166;54.228;37.632;2023-03-23T01:29:29;99225.78;;;5.19;nan
72975;BME280;61166;54.228;37.632;2023-03-23T01:31:55;99219.75;;;5.19;nan
72975;BME280;61166;54.228;37.632;2023-03-23T01:34:20;99213.44;;;5.28;nan
72975;BME280;61166;54.228;37.632;2023-03-23T01:41:37;99213.25;;;5.15;nan
72975;BME280;61166;54.228;37.632;2023-03-23T01:46:31;99224.72;;;5.06;nan
72975;BME280;61166;54.228;37.632;2023-03-23T01:49:21;99220.28;;;4.91;nan
72975;BME280;61166;54.228;37.632;2023-03-23T01:51:54;99220.66;;;4.80;nan
72975;BME280;61166;54.228;37.632;2023-03-23T01:56:53;99227.78;;;4.86;nan
72975;BME280;61166;54.228;37.632;2023-03-23T01:59:21;99224.91;;;4.81;nan
72975;BME280;61166;54.228;37.632;2023-03-23T02:01:48;99220.84;;;4.79;nan
72975;BME280;61166;54.228;37.632;2023-03-23T02:04:16;99223.31;;;4.72;nan
72975;BME280;61166;54.228;37.632;2023-03-23T02:06:43;99220.44;;;4.67;nan
72975;BME280;61166;54.228;37.632;2023-03-23T02:09:09;99215.22;;;4.67;nan
72975;BME280;61166;54.228;37.632;2023-03-23T02:11:34;99215.94;;;4.61;nan
72975;BME280;61166;54.228;37.632;2023-03-23T02:14:00;99212.09;;;4.49;nan
72975;BME280;61166;54.228;37.632;2023-03-23T02:16:47;99218.03;;;4.35;nan
72975;BME280;61166;54.228;37.632;2023-03-23T02:19:23;99216.56;;;4.32;nan
72975;BME280;61166;54.228;37.632;2023-03-23T02:34:28;99204.56;;;4.54;nan
72975;BME280;61166;54.228;37.632;2023-03-23T02:59:15;99209.50;;;3.71;nan
72975;BME280;61166;54.228;37.632;2023-03-23T03:31:44;99195.78;;;3.21;nan
72975;BME280;61166;54.228;37.632;2023-03-23T03:34:11;99196.91;;;3.19;nan
72975;BME280;61166;54.228;37.632;2023-03-23T03:36:37;99201.13;;;3.12;nan
72975;BME280;61166;54.228;37.632;2023-03-23T03:39:07;99202.75;;;3.13;nan
72975;BME280;61166;54.228;37.632;2023-03-23T03:41:34;99203.56;;;3.13;nan
72975;BME280;61166;54.228;37.632;2023-03-23T03:43:59;99202.44;;;3.16;nan
72975;BME280;61166;54.228;37.632;2023-03-23T03:46:25;99192.03;;;3.16;nan
72975;BME280;61166;54.228;37.632;2023-03-23T03:48:50;99196.25;;;3.17;nan
72975;BME280;61166;54.228;37.632;2023-03-23T03:51:16;99192.19;;;3.14;nan
72975;BME280;61166;54.228;37.632;2023-03-23T03:53:41;99191.53;;;3.28;nan
72975;BME280;61166;54.228;37.632;2023-03-23T03:56:07;99184.56;;;3.37;nan
72975;BME280;61166;54.228;37.632;2023-03-23T03:58:32;99183.41;;;3.31;nan
72975;BME280;61166;54.228;37.632;2023-03-23T04:00:59;99176.75;;;3.29;nan
72975;BME280;61166;54.228;37.632;2023-03-23T04:03:26;99170.41;;;3.40;nan
72975;BME280;61166;54.228;37.632;2023-03-23T04:05:53;99166.69;;;3.34;nan
72975;BME280;61166;54.228;37.632;2023-03-23T04:08:18;99172.75;;;4.05;nan
72975;BME280;61166;54.228;37.632;2023-03-23T04:39:52;99177.03;;;9.78;nan
72975;BME280;61166;54.228;37.632;2023-03-23T04:42:18;99181.59;;;9.96;nan
72975;BME280;61166;54.228;37.632;2023-03-23T04:44:43;99173.28;;;10.06;nan
72975;BME280;61166;54.228;37.632;2023-03-23T04:47:09;99175.53;;;9.89;nan
72975;BME280;61166;54.228;37.632;2023-03-23T04:49:34;99176.97;;;10.43;nan
72975;BME280;61166;54.228;37.632;2023-03-23T04:52:00;99173.31;;;10.82;nan
72975;BME280;61166;54.228;37.632;2023-03-23T04:54:25;99175.94;;;10.82;nan
72975;BME280;61166;54.228;37.632;2023-03-23T04:56:51;99175.84;;;10.25;nan
72975;BME280;61166;54.228;37.632;2023-03-23T04:59:16;99172.88;;;9.05;nan
72975;BME280;61166;54.228;37.632;2023-03-23T05:08:58;99169.06;;;7.79;nan
72975;BME280;61166;54.228;37.632;2023-03-23T05:11:23;99169.38;;;7.97;nan
72975;BME280;61166;54.228;37.632;2023-03-23T05:13:49;99164.75;;;7.99;nan
72975;BME280;61166;54.228;37.632;2023-03-23T05:16:15;99163.75;;;8.00;nan
72975;BME280;61166;54.228;37.632;2023-03-23T05:21:05;99159.78;;;8.24;nan
72975;BME280;61166;54.228;37.632;2023-03-23T05:23:31;99160.75;;;8.03;nan
72975;BME280;61166;54.228;37.632;2023-03-23T05:28:22;99160.53;;;7.63;nan
72975;BME280;61166;54.228;37.632;2023-03-23T05:45:21;99161.72;;;7.61;nan
72975;BME280;61166;54.228;37.632;2023-03-23T05:47:47;99161.28;;;7.57;nan
72975;BME280;61166;54.228;37.632;2023-03-23T05:50:13;99163.47;;;7.47;nan
72975;BME280;61166;54.228;37.632;2023-03-23T05:52:39;99157.56;;;7.39;nan
72975;BME280;61166;54.228;37.632;2023-03-23T05:55:05;99170.00;;;7.30;nan
72975;BME280;61166;54.228;37.632;2023-03-23T05:57:31;99166.63;;;7.36;nan
72975;BME280;61166;54.228;37.632;2023-03-23T06:02:23;99170.41;;;7.34;nan
72975;BME280;61166;54.228;37.632;2023-03-23T06:04:50;99170.94;;;7.50;nan
72975;BME280;61166;54.228;37.632;2023-03-23T06:07:16;99169.84;;;7.73;nan
72975;BME280;61166;54.228;37.632;2023-03-23T06:09:41;99175.69;;;8.22;nan
72975;BME280;61166;54.228;37.632;2023-03-23T06:14:34;99167.72;;;12.19;nan
72975;BME280;61166;54.228;37.632;2023-03-23T06:16:59;99173.41;;;11.86;nan
72975;BME280;61166;54.228;37.632;2023-03-23T06:19:25;99176.91;;;11.12;nan
72975;BME280;61166;54.228;37.632;2023-03-23T06:21:50;99179.78;;;10.48;nan
72975;BME280;61166;54.228;37.632;2023-03-23T06:24:17;99182.53;;;10.28;nan
72975;BME280;61166;54.228;37.632;2023-03-23T06:26:42;99181.38;;;10.49;nan
72975;BME280;61166;54.228;37.632;2023-03-23T06:29:08;99187.00;;;10.90;nan
72975;BME280;61166;54.228;37.632;2023-03-23T06:31:34;99173.84;;;13.03;nan
72975;BME280;61166;54.228;37.632;2023-03-23T06:33:59;99168.41;;;14.72;nan
72975;BME280;61166;54.228;37.632;2023-03-23T06:36:25;99176.56;;;14.70;nan
72975;BME280;61166;54.228;37.632;2023-03-23T06:38:50;99161.59;;;16.03;nan
72975;BME280;61166;54.228;37.632;2023-03-23T06:41:16;99170.06;;;15.62;nan
72975;BME280;61166;54.228;37.632;2023-03-23T06:43:41;99169.31;;;15.28;nan
72975;BME280;61166;54.228;37.632;2023-03-23T06:46:07;99163.38;;;16.19;nan
72975;BME280;61166;54.228;37.632;2023-03-23T06:48:32;99156.97;;;18.38;nan
72975;BME280;61166;54.228;37.632;2023-03-23T06:50:58;99158.91;;;19.13;nan
72975;BME280;61166;54.228;37.632;2023-03-23T06:53:23;99148.81;;;20.10;nan
72975;BME280;61166;54.228;37.632;2023-03-23T06:55:49;99146.13;;;20.94;nan
72975;BME280;61166;54.228;37.632;2023-03-23T06:58:15;99146.19;;;21.23;nan
72975;BME280;61166;54.228;37.632;2023-03-23T07:00:40;99144.25;;;21.81;nan
72975;BME280;61166;54.228;37.632;2023-03-23T07:03:06;99131.75;;;22.38;nan
72975;BME280;61166;54.228;37.632;2023-03-23T07:05:33;99138.25;;;22.51;nan
72975;BME280;61166;54.228;37.632;2023-03-23T07:07:59;99145.31;;;22.98;nan
72975;BME280;61166;54.228;37.632;2023-03-23T07:10:25;99149.28;;;23.00;nan
72975;BME280;61166;54.228;37.632;2023-03-23T07:12:50;99153.44;;;23.39;nan
72975;BME280;61166;54.228;37.632;2023-03-23T07:15:16;99147.16;;;23.62;nan
72975;BME280;61166;54.228;37.632;2023-03-23T07:17:42;99151.97;;;23.47;nan
72975;BME280;61166;54.228;37.632;2023-03-23T07:20:07;99146.13;;;23.86;nan
72975;BME280;61166;54.228;37.632;2023-03-23T07:22:33;99143.13;;;23.74;nan
72975;BME280;61166;54.228;37.632;2023-03-23T07:24:59;99145.31;;;24.13;nan
72975;BME280;61166;54.228;37.632;2023-03-23T07:27:25;99138.44;;;24.56;nan
72975;BME280;61166;54.228;37.632;2023-03-23T07:29:50;99154.84;;;24.19;nan
72975;BME280;61166;54.228;37.632;2023-03-23T07:32:16;99127.63;;;24.70;nan
72975;BME280;61166;54.228;37.632;2023-03-23T07:34:41;99136.44;;;23.44;nan
72975;BME280;61166;54.228;37.632;2023-03-23T07:37:07;99126.34;;;23.82;nan
72975;BME280;61166;54.228;37.632;2023-03-23T07:39:33;99135.34;;;24.27;nan
72975;BME280;61166;54.228;37.632;2023-03-23T07:41:59;99116.31;;;24.59;nan
72975;BME280;61166;54.228;37.632;2023-03-23T07:44:24;99115.00;;;24.71;nan
72975;BME280;61166;54.228;37.632;2023-03-23T07:46:50;99111.75;;;24.82;nan
72975;BME280;61166;54.228;37.632;2023-03-23T07:49:15;99100.06;;;24.42;nan
72975;BME280;61166;54.228;37.632;2023-03-23T07:51:41;99091.56;;;24.13;nan
72975;BME280;61166;54.228;37.632;2023-03-23T07:54:07;99101.63;;;24.07;nan
72975;BME280;61166;54.228;37.632;2023-03-23T07:56:33;99102.16;;;23.95;nan
72975;BME280;61166;54.228;37.632;2023-03-23T07:58:59;99110.13;;;23.87;nan
72975;BME280;61166;54.228;37.632;2023-03-23T08:01:25;99112.44;;;24.29;nan
72975;BME280;61166;54.228;37.632;2023-03-23T08:03:50;99106.03;;;24.39;nan
72975;BME280;61166;54.228;37.632;2023-03-23T08:06:16;99105.78;;;24.27;nan
72975;BME280;61166;54.228;37.632;2023-03-23T08:08:41;99106.72;;;24.45;nan
72975;BME280;61166;54.228;37.632;2023-03-23T08:11:07;99100.69;;;24.84;nan
72975;BME280;61166;54.228;37.632;2023-03-23T08:13:33;99103.41;;;24.92;nan
72975;BME280;61166;54.228;37.632;2023-03-23T08:15:59;99103.81;;;25.30;nan
72975;BME280;61166;54.228;37.632;2023-03-23T08:18:24;99089.72;;;25.82;nan
72975;BME280;61166;54.228;37.632;2023-03-23T08:20:50;99087.59;;;25.61;nan
72975;BME280;61166;54.228;37.632;2023-03-23T08:23:15;99086.28;;;25.98;nan
72975;BME280;61166;54.228;37.632;2023-03-23T08:25:42;99080.75;;;26.38;nan
72975;BME280;61166;54.228;37.632;2023-03-23T08:28:07;99072.59;;;26.90;nan
72975;BME280;61166;54.228;37.632;2023-03-23T08:30:33;99076.13;;;26.64;nan
72975;BME280;61166;54.228;37.632;2023-03-23T08:33:00;99071.00;;;25.68;nan
72975;BME280;61166;54.228;37.632;2023-03-23T08:35:25;99069.91;;;24.98;nan
72975;BME280;61166;54.228;37.632;2023-03-23T08:37:51;99075.63;;;24.75;nan
72975;BME280;61166;54.228;37.632;2023-03-23T08:40:18;99066.28;;;25.43;nan
72975;BME280;61166;54.228;37.632;2023-03-23T08:42:45;99058.38;;;25.94;nan
72975;BME280;61166;54.228;37.632;2023-03-23T08:45:13;99069.13;;;25.29;nan
72975;BME280;61166;54.228;37.632;2023-03-23T08:47:39;99059.97;;;25.95;nan
72975;BME280;61166;54.228;37.632;2023-03-23T08:50:06;99059.31;;;26.16;nan
72975;BME280;61166;54.228;37.632;2023-03-23T08:52:32;99048.41;;;26.38;nan
72975;BME280;61166;54.228;37.632;2023-03-23T08:54:58;99044.88;;;26.03;nan
72975;BME280;61166;54.228;37.632;2023-03-23T08:57:26;99050.19;;;25.60;nan
72975;BME280;61166;54.228;37.632;2023-03-23T08:59:52;99046.03;;;25.37;nan
72975;BME280;61166;54.228;37.632;2023-03-23T09:02:17;99054.66;;;25.64;nan
72975;BME280;61166;54.228;37.632;2023-03-23T09:04:43;99045.59;;;24.81;nan
72975;BME280;61166;54.228;37.632;2023-03-23T09:07:09;99053.44;;;24.69;nan
72975;BME280;61166;54.228;37.632;2023-03-23T09:09:35;99048.13;;;24.78;nan
72975;BME280;61166;54.228;37.632;2023-03-23T09:12:00;99060.47;;;25.10;nan
72975;BME280;61166;54.228;37.632;2023-03-23T09:14:26;99052.78;;;24.94;nan
72975;BME280;61166;54.228;37.632;2023-03-23T09:16:52;99037.53;;;25.60;nan
72975;BME280;61166;54.228;37.632;2023-03-23T09:19:18;99043.59;;;24.95;nan
72975;BME280;61166;54.228;37.632;2023-03-23T09:21:43;99044.50;;;23.24;nan
72975;BME280;61166;54.228;37.632;2023-03-23T09:24:08;99045.75;;;21.78;nan
72975;BME280;61166;54.228;37.632;2023-03-23T09:26:34;99038.16;;;22.74;nan
72975;BME280;61166;54.228;37.632;2023-03-23T09:29:00;99027.19;;;23.71;nan
72975;BME280;61166;54.228;37.632;2023-03-23T09:31:25;99033.78;;;24.01;nan
72975;BME280;61166;54.228;37.632;2023-03-23T09:33:50;99017.97;;;24.00;nan
72975;BME280;61166;54.228;37.632;2023-03-23T09:36:18;99032.50;;;22.76;nan
72975;BME280;61166;54.228;37.632;2023-03-23T09:38:43;99031.75;;;22.56;nan
72975;BME280;61166;54.228;37.632;2023-03-23T09:46:54;99026.59;;;19.97;nan
72975;BME280;61166;54.228;37.632;2023-03-23T09:49:27;99011.41;;;19.38;nan
72975;BME280;61166;54.228;37.632;2023-03-23T09:52:01;99035.78;;;18.25;nan
72975;BME280;61166;54.228;37.632;2023-03-23T09:54:36;99028.97;;;17.62;nan
72975;BME280;61166;54.228;37.632;2023-03-23T09:57:05;99017.47;;;16.89;nan
72975;BME280;61166;54.228;37.632;2023-03-23T09:59:46;99030.59;;;16.36;nan
72975;BME280;61166;54.228;37.632;2023-03-23T10:02:18;99026.75;;;15.95;nan
72975;BME280;61166;54.228;37.632;2023-03-23T10:04:49;99024.19;;;15.78;nan
72975;BME280;61166;54.228;37.632;2023-03-23T10:07:22;99018.31;;;15.11;nan
72975;BME280;61166;54.228;37.632;2023-03-23T10:09:59;99013.72;;;15.01;nan
72975;BME280;61166;54.228;37.632;2023-03-23T10:12:59;99022.00;;;14.88;nan
72975;BME280;61166;54.228;37.632;2023-03-23T10:15:30;99011.41;;;14.71;nan
72975;BME280;61166;54.228;37.632;2023-03-23T10:18:02;99005.88;;;14.56;nan
72975;BME280;61166;54.228;37.632;2023-03-23T10:21:01;98999.22;;;14.70;nan
72975;BME280;61166;54.228;37.632;2023-03-23T10:28:57;99005.38;;;14.26;nan
72975;BME280;61166;54.228;37.632;2023-03-23T10:31:29;98993.94;;;14.37;nan
72975;BME280;61166;54.228;37.632;2023-03-23T10:33:58;98992.00;;;14.32;nan
72975;BME280;61166;54.228;37.632;2023-03-23T10:36:34;98986.56;;;14.39;nan
72975;BME280;61166;54.228;37.632;2023-03-23T10:41:31;98973.16;;;14.29;nan
72975;BME280;61166;54.228;37.632;2023-03-23T10:43:56;98963.53;;;14.23;nan
72975;BME280;61166;54.228;37.632;2023-03-23T10:46:51;98992.56;;;14.34;nan
72975;BME280;61166;54.228;37.632;2023-03-23T10:49:23;98992.41;;;14.24;nan
72975;BME280;61166;54.228;37.632;2023-03-23T10:55:02;98988.25;;;13.83;nan
72975;BME280;61166;54.228;37.632;2023-03-23T10:57:31;98986.91;;;13.80;nan
72975;BME280;61166;54.228;37.632;2023-03-23T11:02:30;98987.53;;;13.59;nan
72975;BME280;61166;54.228;37.632;2023-03-23T11:05:02;98983.06;;;13.60;nan
72975;BME280;61166;54.228;37.632;2023-03-23T11:07:30;98959.47;;;13.41;nan
72975;BME280;61166;54.228;37.632;2023-03-23T11:10:05;98957.88;;;13.29;nan
72975;BME280;61166;54.228;37.632;2023-03-23T11:12:33;98962.66;;;12.92;nan
72975;BME280;61166;54.228;37.632;2023-03-23T11:15:30;98945.56;;;12.82;nan
72975;BME280;61166;54.228;37.632;2023-03-23T11:18:02;98933.44;;;12.35;nan
72975;BME280;61166;54.228;37.632;2023-03-23T11:20:32;98946.72;;;12.40;nan
72975;BME280;61166;54.228;37.632;2023-03-23T11:22:59;98955.56;;;12.45;nan
72975;BME280;61166;54.228;37.632;2023-03-23T11:25:25;98951.69;;;12.48;nan
72975;BME280;61166;54.228;37.632;2023-03-23T11:27:50;98944.09;;;12.63;nan
72975;BME280;61166;54.228;37.632;2023-03-23T11:30:23;98951.78;;;12.65;nan
72975;BME280;61166;54.228;37.632;2023-03-23T11:32:50;98952.59;;;12.65;nan
72975;BME280;61166;54.228;37.632;2023-03-23T11:35:23;98951.56;;;12.66;nan
72975;BME280;61166;54.228;37.632;2023-03-23T11:37:53;98953.50;;;12.59;nan
72975;BME280;61166;54.228;37.632;2023-03-23T11:40:24;98934.25;;;12.70;nan
72975;BME280;61166;54.228;37.632;2023-03-23T11:43:01;98933.22;;;12.60;nan
72975;BME280;61166;54.228;37.632;2023-03-23T11:51:06;98937.91;;;12.69;nan
72975;BME280;61166;54.228;37.632;2023-03-23T11:56:34;98935.34;;;12.74;nan
72975;BME280;61166;54.228;37.632;2023-03-23T11:59:10;98930.53;;;12.71;nan
72975;BME280;61166;54.228;37.632;2023-03-23T12:07:39;98926.31;;;12.59;nan
72975;BME280;61166;54.228;37.632;2023-03-23T12:19:08;98931.84;;;12.57;nan
72975;BME280;61166;54.228;37.632;2023-03-23T12:22:09;98925.88;;;12.50;nan
72975;BME280;61166;54.228;37.632;2023-03-23T12:32:53;98920.94;;;12.42;nan
72975;BME280;61166;54.228;37.632;2023-03-23T12:35:32;98927.34;;;12.34;nan
72975;BME280;61166;54.228;37.632;2023-03-23T12:41:08;98913.63;;;12.96;nan
72975;BME280;61166;54.228;37.632;2023-03-23T12:46:20;98914.28;;;12.63;nan
72975;BME280;61166;54.228;37.632;2023-03-23T12:49:03;98911.16;;;12.77;nan
72975;BME280;61166;54.228;37.632;2023-03-23T12:51:39;98912.53;;;12.80;nan
72975;BME280;61166;54.228;37.632;2023-03-23T12:54:12;98903.38;;;12.71;nan
72975;BME280;61166;54.228;37.632;2023-03-23T12:59:22;98898.47;;;12.51;nan
72975;BME280;61166;54.228;37.632;2023-03-23T13:01:54;98912.91;;;12.48;nan
72975;BME280;61166;54.228;37.632;2023-03-23T13:04:25;98903.63;;;12.57;nan
72975;BME280;61166;54.228;37.632;2023-03-23T13:06:53;98904.09;;;12.54;nan
72975;BME280;61166;54.228;37.632;2023-03-23T13:11:51;98898.34;;;12.46;nan
72975;BME280;61166;54.228;37.632;2023-03-23T13:22:55;98890.66;;;12.33;nan
72975;BME280;61166;54.228;37.632;2023-03-23T13:25:46;98889.97;;;12.26;nan
72975;BME280;61166;54.228;37.632;2023-03-23T13:28:18;98879.78;;;12.41;nan
72975;BME280;61166;54.228;37.632;2023-03-23T13:30:53;98894.56;;;12.42;nan
72975;BME280;61166;54.228;37.632;2023-03-23T13:33:19;98887.56;;;12.24;nan
72975;BME280;61166;54.228;37.632;2023-03-23T13:35:45;98889.41;;;12.35;nan
72975;BME280;61166;54.228;37.632;2023-03-23T13:38:26;98887.78;;;12.34;nan
72975;BME280;61166;54.228;37.632;2023-03-23T13:40:53;98877.47;;;12.21;nan
72975;BME280;61166;54.228;37.632;2023-03-23T13:43:33;98880.34;;;12.19;nan
72975;BME280;61166;54.228;37.632;2023-03-23T13:48:46;98880.78;;;11.93;nan
72975;BME280;61166;54.228;37.632;2023-03-23T13:53:52;98864.19;;;12.04;nan
72975;BME280;61166;54.228;37.632;2023-03-23T13:56:35;98874.41;;;12.12;nan
72975;BME280;61166;54.228;37.632;2023-03-23T13:59:06;98872.09;;;12.28;nan
72975;BME280;61166;54.228;37.632;2023-03-23T14:01:37;98866.59;;;12.41;nan
72975;BME280;61166;54.228;37.632;2023-03-23T14:04:07;98876.22;;;12.35;nan
72975;BME280;61166;54.228;37.632;2023-03-23T14:06:36;98881.72;;;12.34;nan
72975;BME280;61166;54.228;37.632;2023-03-23T14:09:16;98875.31;;;12.30;nan
72975;BME280;61166;54.228;37.632;2023-03-23T14:11:55;98869.44;;;12.28;nan
72975;BME280;61166;54.228;37.632;2023-03-23T14:14:29;98868.19;;;12.42;nan
72975;BME280;61166;54.228;37.632;2023-03-23T14:17:26;98849.59;;;12.48;nan
72975;BME280;61166;54.228;37.632;2023-03-23T14:19:55;98857.19;;;12.45;nan
72975;BME280;61166;54.228;37.632;2023-03-23T14:22:28;98860.75;;;12.39;nan
72975;BME280;61166;54.228;37.632;2023-03-23T14:25:26;98857.31;;;12.38;nan
72975;BME280;61166;54.228;37.632;2023-03-23T14:27:52;98862.81;;;12.37;nan
72975;BME280;61166;54.228;37.632;2023-03-23T14:30:23;98876.22;;;12.35;nan
72975;BME280;61166;54.228;37.632;2023-03-23T14:32:51;98863.94;;;12.29;nan
72975;BME280;61166;54.228;37.632;2023-03-23T14:35:27;98852.38;;;12.42;nan
72975;BME280;61166;54.228;37.632;2023-03-23T14:37:55;98872.31;;;12.49;nan
72975;BME280;61166;54.228;37.632;2023-03-23T14:40:21;98864.06;;;12.57;nan
72975;BME280;61166;54.228;37.632;2023-03-23T14:42:47;98864.38;;;12.61;nan
72975;BME280;61166;54.228;37.632;2023-03-23T14:45:18;98860.50;;;12.52;nan
72975;BME280;61166;54.228;37.632;2023-03-23T14:47:47;98867.63;;;12.51;nan
72975;BME280;61166;54.228;37.632;2023-03-23T14:50:50;98867.28;;;12.48;nan
72975;BME280;61166;54.228;37.632;2023-03-23T14:53:29;98869.34;;;12.46;nan
72975;BME280;61166;54.228;37.632;2023-03-23T14:55:55;98860.97;;;12.49;nan
72975;BME280;61166;54.228;37.632;2023-03-23T14:58:22;98868.19;;;12.42;nan
72975;BME280;61166;54.228;37.632;2023-03-23T15:00:56;98857.63;;;12.42;nan
72975;BME280;61166;54.228;37.632;2023-03-23T15:03:23;98852.72;;;12.45;nan
72975;BME280;61166;54.228;37.632;2023-03-23T15:05:53;98853.97;;;12.43;nan
72975;BME280;61166;54.228;37.632;2023-03-23T15:08:28;98856.50;;;12.26;nan
72975;BME280;61166;54.228;37.632;2023-03-23T15:11:05;98854.22;;;12.30;nan
72975;BME280;61166;54.228;37.632;2023-03-23T15:13:33;98856.28;;;12.28;nan
72975;BME280;61166;54.228;37.632;2023-03-23T15:16:11;98849.50;;;12.32;nan
72975;BME280;61166;54.228;37.632;2023-03-23T15:18:39;98847.69;;;12.09;nan
72975;BME280;61166;54.228;37.632;2023-03-23T15:21:10;98845.94;;;12.26;nan
72975;BME280;61166;54.228;37.632;2023-03-23T15:23:41;98851.34;;;11.96;nan
72975;BME280;61166;54.228;37.632;2023-03-23T15:26:19;98842.28;;;11.92;nan
72975;BME280;61166;54.228;37.632;2023-03-23T15:28:46;98844.75;;;11.75;nan
72975;BME280;61166;54.228;37.632;2023-03-23T15:31:12;98859.28;;;11.66;nan
72975;BME280;61166;54.228;37.632;2023-03-23T15:33:39;98844.28;;;11.55;nan
72975;BME280;61166;54.228;37.632;2023-03-23T15:36:08;98850.53;;;11.42;nan
72975;BME280;61166;54.228;37.632;2023-03-23T15:38:35;98835.09;;;11.16;nan
72975;BME280;61166;54.228;37.632;2023-03-23T15:41:04;98833.09;;;11.00;nan
72975;BME280;61166;54.228;37.632;2023-03-23T15:43:48;98833.88;;;10.88;nan
72975;BME280;61166;54.228;37.632;2023-03-23T15:51:23;98835.13;;;10.49;nan
72975;BME280;61166;54.228;37.632;2023-03-23T15:53:53;98830.66;;;10.68;nan
72975;BME280;61166;54.228;37.632;2023-03-23T15:56:19;98832.50;;;10.68;nan
72975;BME280;61166;54.228;37.632;2023-03-23T15:58:45;98834.41;;;10.61;nan
72975;BME280;61166;54.228;37.632;2023-03-23T16:01:13;98830.84;;;10.37;nan
72975;BME280;61166;54.228;37.632;2023-03-23T16:03:45;98837.25;;;10.22;nan
72975;BME280;61166;54.228;37.632;2023-03-23T16:06:15;98824.53;;;10.19;nan
72975;BME280;61166;54.228;37.632;2023-03-23T16:08:51;98826.28;;;10.25;nan
72975;BME280;61166;54.228;37.632;2023-03-23T16:11:21;98834.44;;;10.17;nan
72975;BME280;61166;54.228;37.632;2023-03-23T16:13:47;98836.00;;;10.25;nan
72975;BME280;61166;54.228;37.632;2023-03-23T16:16:44;98835.66;;;10.15;nan
72975;BME280;61166;54.228;37.632;2023-03-23T16:19:16;98838.69;;;9.93;nan
72975;BME280;61166;54.228;37.632;2023-03-23T16:21:42;98822.38;;;9.85;nan
72975;BME280;61166;54.228;37.632;2023-03-23T16:24:09;98826.31;;;9.76;nan
72975;BME280;61166;54.228;37.632;2023-03-23T16:26:36;98828.16;;;9.75;nan
72975;BME280;61166;54.228;37.632;2023-03-23T16:29:12;98823.47;;;9.77;nan
72975;BME280;61166;54.228;37.632;2023-03-23T16:31:54;98827.78;;;9.90;nan
72975;BME280;61166;54.228;37.632;2023-03-23T16:34:20;98824.59;;;9.88;nan
72975;BME280;61166;54.228;37.632;2023-03-23T16:36:47;98827.16;;;9.94;nan
72975;BME280;61166;54.228;37.632;2023-03-23T16:39:13;98827.75;;;9.97;nan
72975;BME280;61166;54.228;37.632;2023-03-23T16:41:40;98826.81;;;10.09;nan
72975;BME280;61166;54.228;37.632;2023-03-23T16:44:07;98830.44;;;9.90;nan
72975;BME280;61166;54.228;37.632;2023-03-23T16:46:33;98826.63;;;9.86;nan
72975;BME280;61166;54.228;37.632;2023-03-23T16:49:00;98835.22;;;9.75;nan
72975;BME280;61166;54.228;37.632;2023-03-23T16:51:27;98833.78;;;9.79;nan
72975;BME280;61166;54.228;37.632;2023-03-23T16:53:53;98834.03;;;9.71;nan
72975;BME280;61166;54.228;37.632;2023-03-23T16:56:20;98829.63;;;9.65;nan
72975;BME280;61166;54.228;37.632;2023-03-23T16:58:46;98825.03;;;9.60;nan
72975;BME280;61166;54.228;37.632;2023-03-23T17:01:13;98826.91;;;9.53;nan
72975;BME280;61166;54.228;37.632;2023-03-23T17:03:39;98821.25;;;9.49;nan
72975;BME280;61166;54.228;37.632;2023-03-23T17:06:09;98820.00;;;9.58;nan
72975;BME280;61166;54.228;37.632;2023-03-23T17:08:35;98820.78;;;9.59;nan
72975;BME280;61166;54.228;37.632;2023-03-23T17:11:02;98842.13;;;9.69;nan
72975;BME280;61166;54.228;37.632;2023-03-23T17:13:29;98812.59;;;9.74;nan
72975;BME280;61166;54.228;37.632;2023-03-23T17:15:55;98799.75;;;9.66;nan
72975;BME280;61166;54.228;37.632;2023-03-23T17:18:23;98807.03;;;9.64;nan
72975;BME280;61166;54.228;37.632;2023-03-23T17:20:52;98803.38;;;9.65;nan
72975;BME280;61166;54.228;37.632;2023-03-23T17:23:19;98812.91;;;9.59;nan
72975;BME280;61166;54.228;37.632;2023-03-23T17:25:46;98808.84;;;9.63;nan
72975;BME280;61166;54.228;37.632;2023-03-23T17:28:13;98809.00;;;9.68;nan
72975;BME280;61166;54.228;37.632;2023-03-23T17:30:41;98813.91;;;9.83;nan
72975;BME280;61166;54.228;37.632;2023-03-23T17:33:09;98807.38;;;9.92;nan
72975;BME280;61166;54.228;37.632;2023-03-23T17:35:36;98809.56;;;9.95;nan
72975;BME280;61166;54.228;37.632;2023-03-23T17:38:03;98814.38;;;9.80;nan
72975;BME280;61166;54.228;37.632;2023-03-23T17:40:30;98801.91;;;9.93;nan
72975;BME280;61166;54.228;37.632;2023-03-23T17:42:56;98805.00;;;9.84;nan
72975;BME280;61166;54.228;37.632;2023-03-23T17:45:23;98800.88;;;9.76;nan
72975;BME280;61166;54.228;37.632;2023-03-23T17:47:50;98806.56;;;9.73;nan